Time;durP1;ratioP1;P1;durP2;ratioP2;P2;SDS_P1;SDS_P2;PMS_P1;PMS_P2;Temp;Humidity;BMP_temperature;BMP_pressure;BME280_temperature;BME280_humidity;BME280_pressure;Samples;Min_cycle;Max_cycle;Signal;HPM_P1;HPM_P2
2023/02/20 00:01:16;;;;;;;21.52;9.18;;;;;;;;;;5012065;28;20117;-73
2023/02/20 00:03:42;;;;;;;15.85;6.20;;;;;;;;;;5013891;28;20045;-72
2023/02/20 00:06:07;;;;;;;23.80;9.27;;;;;;;;;;5029103;28;20061;-73
2023/02/20 00:08:33;;;;;;;17.08;7.43;;;;;;;;;;5014053;28;20061;-72
2023/02/20 00:10:58;;;;;;;17.75;6.93;;;;;;;;;;5013721;28;20069;-73
2023/02/20 00:13:23;;;;;;;21.35;7.28;;;;;;;;;;5008441;28;20446;-73
2023/02/20 00:15:49;;;;;;;18.25;6.95;;;;;;;;;;5012193;28;20449;-72
2023/02/20 00:18:14;;;;;;;18.60;6.78;;;;;;;;;;5009531;28;20097;-73
2023/02/20 00:20:40;;;;;;;14.82;6.18;;;;;;;;;;5010930;28;20018;-72
2023/02/20 00:23:05;;;;;;;14.25;6.28;;;;;;;;;;5011888;28;20065;-72
2023/02/20 00:25:31;;;;;;;19.30;7.53;;;;;;;;;;5012643;28;20128;-73
2023/02/20 00:27:56;;;;;;;14.75;5.93;;;;;;;;;;5014013;28;20045;-73
2023/02/20 00:30:23;;;;;;;12.20;5.25;;;;;;;;;;5011707;28;20042;-72
2023/02/20 00:32:50;;;;;;;13.43;5.97;;;;;;;;;;5013474;28;20041;-73
2023/02/20 00:35:16;;;;;;;11.75;5.60;;;;;;;;;;4995857;28;20394;-73
2023/02/20 00:37:42;;;;;;;13.55;5.25;;;;;;;;;;5012491;28;20038;-73
2023/02/20 00:40:08;;;;;;;13.13;5.20;;;;;;;;;;5028254;28;20065;-73
2023/02/20 00:42:34;;;;;;;10.00;5.25;;;;;;;;;;5006785;28;20045;-73
2023/02/20 00:44:59;;;;;;;13.65;4.97;;;;;;;;;;5021344;28;20041;-73
2023/02/20 00:47:25;;;;;;;14.93;5.00;;;;;;;;;;5011794;28;20034;-72
2023/02/20 00:49:50;;;;;;;14.10;4.55;;;;;;;;;;5002827;28;20053;-73
2023/02/20 00:52:16;;;;;;;15.95;4.85;;;;;;;;;;5006842;28;20441;-72
2023/02/20 00:54:41;;;;;;;11.68;5.00;;;;;;;;;;5007770;28;20085;-73
2023/02/20 00:57:06;;;;;;;14.38;5.15;;;;;;;;;;4997282;28;20029;-72
2023/02/20 00:59:32;;;;;;;10.38;3.97;;;;;;;;;;5006665;28;20038;-73
2023/02/20 01:01:57;;;;;;;14.68;5.10;;;;;;;;;;5012775;28;20065;-72
2023/02/20 01:04:23;;;;;;;12.80;4.35;;;;;;;;;;5009936;28;20052;-73
2023/02/20 01:06:48;;;;;;;10.55;4.93;;;;;;;;;;5012010;28;20041;-73
2023/02/20 01:09:14;;;;;;;15.05;5.57;;;;;;;;;;5011824;28;20076;-73
2023/02/20 01:11:43;;;;;;;14.95;5.10;;;;;;;;;;5002972;28;20036;-72
2023/02/20 01:14:09;;;;;;;12.68;4.07;;;;;;;;;;5009871;28;20041;-74
2023/02/20 01:16:35;;;;;;;20.38;5.35;;;;;;;;;;5012380;28;20490;-72
2023/02/20 01:19:00;;;;;;;12.10;4.45;;;;;;;;;;5005716;28;20049;-73
2023/02/20 01:21:26;;;;;;;9.75;4.35;;;;;;;;;;5012491;28;20041;-73
2023/02/20 01:23:52;;;;;;;14.80;4.93;;;;;;;;;;5002807;28;20388;-73
2023/02/20 01:26:17;;;;;;;11.18;5.00;;;;;;;;;;5026717;28;20026;-73
2023/02/20 01:28:48;;;;;;;14.45;4.78;;;;;;;;;;5013051;28;20398;-73
2023/02/20 01:31:14;;;;;;;11.68;4.90;;;;;;;;;;5012995;28;20053;-73
2023/02/20 01:33:43;;;;;;;9.15;4.25;;;;;;;;;;5007100;28;20045;-73
2023/02/20 01:36:09;;;;;;;15.20;4.88;;;;;;;;;;5009971;28;20052;-73
2023/02/20 01:38:34;;;;;;;11.48;5.32;;;;;;;;;;5017079;28;20045;-74
2023/02/20 01:41:00;;;;;;;12.20;5.43;;;;;;;;;;5016039;28;20105;-73
2023/02/20 01:43:25;;;;;;;11.93;5.25;;;;;;;;;;5032040;28;20049;-72
2023/02/20 01:45:51;;;;;;;13.57;7.07;;;;;;;;;;5014693;28;20111;-73
2023/02/20 01:48:22;;;;;;;17.70;8.13;;;;;;;;;;5018432;28;20467;-73
2023/02/20 01:50:50;;;;;;;16.25;7.80;;;;;;;;;;5013197;28;20052;-73
2023/02/20 01:53:18;;;;;;;19.48;9.32;;;;;;;;;;5007743;28;20454;-73
2023/02/20 01:55:51;;;;;;;19.30;8.80;;;;;;;;;;5014876;28;20097;-73
2023/02/20 01:58:19;;;;;;;24.15;9.93;;;;;;;;;;5016575;28;20045;-72
2023/02/20 02:00:44;;;;;;;21.73;9.85;;;;;;;;;;5013487;28;20122;-73
2023/02/20 02:03:12;;;;;;;24.55;9.98;;;;;;;;;;5006845;28;20109;-73
2023/02/20 02:05:41;;;;;;;21.55;10.23;;;;;;;;;;5015101;28;20026;-72
2023/02/20 02:08:08;;;;;;;18.42;9.73;;;;;;;;;;5015385;28;20386;-73
2023/02/20 02:10:58;;;;;;;27.23;10.52;;;;;;;;;;5015722;28;20057;-73
2023/02/20 02:13:24;;;;;;;20.65;10.88;;;;;;;;;;5013998;28;20120;-73
2023/02/20 02:15:59;;;;;;;21.02;10.85;;;;;;;;;;5005444;28;20109;-73
2023/02/20 02:18:25;;;;;;;25.00;10.88;;;;;;;;;;5012361;28;20078;-73
2023/02/20 02:21:09;;;;;;;22.83;9.93;;;;;;;;;;5014537;28;20084;-73
2023/02/20 02:23:49;;;;;;;25.98;11.07;;;;;;;;;;5016364;28;20033;-73
2023/02/20 02:26:43;;;;;;;21.85;10.85;;;;;;;;;;5012950;28;20046;-72
2023/02/20 02:29:35;;;;;;;25.73;11.20;;;;;;;;;;5009825;28;20095;-73
2023/02/20 02:32:42;;;;;;;18.73;10.52;;;;;;;;;;5010196;28;20501;-73
2023/02/20 02:35:41;;;;;;;27.85;12.02;;;;;;;;;;4985704;28;20104;-73
2023/02/20 02:38:25;;;;;;;19.80;9.35;;;;;;;;;;5015909;28;20045;-73
2023/02/20 02:40:50;;;;;;;25.38;11.18;;;;;;;;;;5005606;28;20046;-73
2023/02/20 02:43:26;;;;;;;23.70;10.13;;;;;;;;;;5009168;28;20042;-73
2023/02/20 02:45:59;;;;;;;24.58;9.85;;;;;;;;;;5010173;28;20038;-73
2023/02/20 02:48:27;;;;;;;21.63;10.48;;;;;;;;;;5013958;28;20046;-73
2023/02/20 02:50:56;;;;;;;26.45;11.38;;;;;;;;;;5014014;28;20054;-75
2023/02/20 02:53:21;;;;;;;21.13;9.73;;;;;;;;;;5011153;28;20072;-73
2023/02/20 02:55:47;;;;;;;22.67;9.05;;;;;;;;;;5015418;28;20422;-73
2023/02/20 02:58:14;;;;;;;16.80;8.68;;;;;;;;;;5015385;28;20485;-73
2023/02/20 03:00:43;;;;;;;27.90;10.05;;;;;;;;;;5019567;28;20410;-72
2023/02/20 03:03:21;;;;;;;20.45;8.57;;;;;;;;;;5012012;28;20034;-73
2023/02/20 03:06:21;;;;;;;18.63;8.38;;;;;;;;;;5014212;28;20064;-73
2023/02/20 03:08:58;;;;;;;17.55;7.03;;;;;;;;;;5002746;28;20033;-72
2023/02/20 03:11:26;;;;;;;17.98;7.75;;;;;;;;;;5010942;28;20041;-73
2023/02/20 03:17:10;;;;;;;16.27;6.45;;;;;;;;;;5014888;28;20052;-72
2023/02/20 03:19:47;;;;;;;15.70;6.95;;;;;;;;;;5014587;28;20107;-73
2023/02/20 03:22:29;;;;;;;13.18;5.88;;;;;;;;;;5011520;28;20466;-73
2023/02/20 03:25:03;;;;;;;15.32;5.18;;;;;;;;;;5023932;28;20104;-73
2023/02/20 03:27:51;;;;;;;20.02;5.63;;;;;;;;;;5011458;28;20041;-73
2023/02/20 03:30:39;;;;;;;10.73;4.88;;;;;;;;;;5011603;28;20032;-73
2023/02/20 03:44:17;;;;;;;10.27;4.03;;;;;;;;;;5006709;28;20060;-73
2023/02/20 03:46:43;;;;;;;8.88;4.50;;;;;;;;;;5003550;28;20044;-72
2023/02/20 03:49:15;;;;;;;10.23;4.32;;;;;;;;;;5023097;28;20057;-73
2023/02/20 03:51:41;;;;;;;10.80;4.90;;;;;;;;;;5012141;28;20124;-73
2023/02/20 03:54:07;;;;;;;8.68;4.88;;;;;;;;;;5005926;28;20034;-73
2023/02/20 03:56:44;;;;;;;9.60;4.50;;;;;;;;;;5013380;28;20048;-73
2023/02/20 03:59:17;;;;;;;8.00;3.15;;;;;;;;;;5013147;28;20030;-73
2023/02/20 04:01:44;;;;;;;3.47;1.90;;;;;;;;;;5001549;28;20550;-73
2023/02/20 04:04:13;;;;;;;2.97;1.48;;;;;;;;;;5017755;28;20244;-73
2023/02/20 04:06:40;;;;;;;4.22;1.70;;;;;;;;;;5009821;28;20069;-73
2023/02/20 04:09:17;;;;;;;2.88;1.63;;;;;;;;;;5010251;28;20045;-73
2023/02/20 04:11:53;;;;;;;3.55;1.63;;;;;;;;;;5008429;28;20041;-73
2023/02/20 04:14:21;;;;;;;7.43;1.83;;;;;;;;;;5028895;28;20034;-74
2023/02/20 04:16:57;;;;;;;3.75;1.83;;;;;;;;;;5014192;28;20033;-73
2023/02/20 04:19:23;;;;;;;4.38;1.80;;;;;;;;;;5028987;28;20038;-73
2023/02/20 04:21:55;;;;;;;3.92;2.08;;;;;;;;;;5011904;28;20038;-73
2023/02/20 04:24:37;;;;;;;2.95;1.85;;;;;;;;;;5003531;28;20037;-73
2023/02/20 04:27:03;;;;;;;3.33;1.58;;;;;;;;;;5009548;28;20050;-72
2023/02/20 04:29:28;;;;;;;2.83;1.63;;;;;;;;;;5006631;28;20057;-73
2023/02/20 04:31:54;;;;;;;3.20;2.00;;;;;;;;;;5005302;28;20455;-74
2023/02/20 04:34:19;;;;;;;5.38;1.98;;;;;;;;;;5012042;28;20038;-73
2023/02/20 04:36:44;;;;;;;5.93;1.92;;;;;;;;;;5013840;28;20041;-73
2023/02/20 04:39:10;;;;;;;3.22;1.92;;;;;;;;;;5004566;28;20046;-73
2023/02/20 04:41:36;;;;;;;4.80;1.83;;;;;;;;;;5003953;28;20467;-74
2023/02/20 04:46:45;;;;;;;4.47;1.67;;;;;;;;;;5024876;28;20044;-73
2023/02/20 04:49:10;;;;;;;2.65;1.48;;;;;;;;;;5003202;28;20470;-73
2023/02/20 04:51:36;;;;;;;2.97;1.70;;;;;;;;;;5012425;28;20450;-74
2023/02/20 04:54:01;;;;;;;2.28;1.30;;;;;;;;;;4995663;28;20125;-73
2023/02/20 04:56:27;;;;;;;2.72;1.35;;;;;;;;;;5012147;28;20044;-73
2023/02/20 04:58:52;;;;;;;2.20;1.30;;;;;;;;;;5012979;28;20092;-74
2023/02/20 05:01:18;;;;;;;3.30;1.65;;;;;;;;;;5005140;28;20105;-73
2023/02/20 05:03:43;;;;;;;3.05;1.70;;;;;;;;;;5008217;28;20053;-73
2023/02/20 05:06:09;;;;;;;5.50;2.10;;;;;;;;;;5006045;28;20042;-73
2023/02/20 05:08:34;;;;;;;2.55;1.60;;;;;;;;;;5008348;28;20029;-73
2023/02/20 05:10:59;;;;;;;2.90;1.58;;;;;;;;;;5010970;28;20034;-73
2023/02/20 05:13:25;;;;;;;2.88;1.63;;;;;;;;;;5006692;28;20085;-73
2023/02/20 05:15:50;;;;;;;5.95;1.95;;;;;;;;;;5010252;28;20041;-73
2023/02/20 05:18:29;;;;;;;3.47;2.30;;;;;;;;;;4994351;28;20045;-73
2023/02/20 05:23:39;;;;;;;5.18;3.10;;;;;;;;;;5026074;28;20616;-74
2023/02/20 05:26:12;;;;;;;7.18;3.05;;;;;;;;;;5015056;28;20121;-73
2023/02/20 05:28:38;;;;;;;5.82;2.65;;;;;;;;;;5011634;28;20466;-74
2023/02/20 05:31:05;;;;;;;6.38;3.15;;;;;;;;;;5012931;28;20041;-75
2023/02/20 05:33:30;;;;;;;7.75;3.50;;;;;;;;;;5027886;28;20046;-73
2023/02/20 05:35:55;;;;;;;8.73;3.20;;;;;;;;;;5004053;28;20045;-72
2023/02/20 05:38:21;;;;;;;6.20;3.50;;;;;;;;;;5004499;28;20521;-73
2023/02/20 05:40:46;;;;;;;6.15;3.40;;;;;;;;;;5004399;28;20030;-73
2023/02/20 05:43:12;;;;;;;8.18;3.63;;;;;;;;;;5005881;28;20121;-73
2023/02/20 05:45:37;;;;;;;8.55;3.70;;;;;;;;;;5001892;28;20116;-74
2023/02/20 05:48:03;;;;;;;6.85;3.38;;;;;;;;;;5009977;28;20066;-73
2023/02/20 05:50:28;;;;;;;7.00;3.67;;;;;;;;;;5001538;28;20085;-73
2023/02/20 05:52:54;;;;;;;7.43;3.53;;;;;;;;;;5004891;28;20026;-73
2023/02/20 05:55:19;;;;;;;7.97;3.95;;;;;;;;;;5005406;28;20042;-73
2023/02/20 05:57:44;;;;;;;6.60;3.42;;;;;;;;;;5013068;28;20091;-73
2023/02/20 06:00:10;;;;;;;7.88;4.45;;;;;;;;;;5011109;28;20030;-74
2023/02/20 06:02:36;;;;;;;11.32;4.65;;;;;;;;;;5010766;28;20042;-73
2023/02/20 06:05:04;;;;;;;10.43;4.63;;;;;;;;;;5010325;28;20038;-73
2023/02/20 06:07:30;;;;;;;7.70;4.20;;;;;;;;;;5012919;28;20030;-72
2023/02/20 06:09:55;;;;;;;20.00;6.85;;;;;;;;;;5012609;28;20060;-73
2023/02/20 06:12:20;;;;;;;14.70;5.07;;;;;;;;;;5009797;28;20529;-73
2023/02/20 06:14:46;;;;;;;8.77;4.82;;;;;;;;;;5012384;28;20026;-73
2023/02/20 06:17:11;;;;;;;7.78;5.05;;;;;;;;;;5012569;28;20049;-73
2023/02/20 06:19:37;;;;;;;7.05;3.97;;;;;;;;;;5012299;28;20079;-74
2023/02/20 06:22:03;;;;;;;9.05;5.32;;;;;;;;;;5012620;28;20458;-73
2023/02/20 06:24:28;;;;;;;12.20;5.20;;;;;;;;;;5015225;28;20126;-73
2023/02/20 06:26:53;;;;;;;7.20;4.80;;;;;;;;;;5016177;28;20030;-75
2023/02/20 06:29:19;;;;;;;9.65;4.82;;;;;;;;;;5015778;28;20061;-73
2023/02/20 06:31:45;;;;;;;7.38;4.72;;;;;;;;;;5016284;28;20458;-73
2023/02/20 06:34:11;;;;;;;7.93;4.22;;;;;;;;;;5014182;28;20049;-73
2023/02/20 06:36:39;;;;;;;8.40;4.10;;;;;;;;;;4991490;28;20031;-74
2023/02/20 06:39:06;;;;;;;4.75;3.38;;;;;;;;;;5011182;28;20537;-74
2023/02/20 06:41:32;;;;;;;4.88;2.90;;;;;;;;;;5013589;28;20046;-73
2023/02/20 06:43:58;;;;;;;5.22;3.40;;;;;;;;;;5016113;28;20441;-73
2023/02/20 06:46:23;;;;;;;5.05;2.97;;;;;;;;;;5015453;28;20042;-73
2023/02/20 06:48:52;;;;;;;4.47;2.88;;;;;;;;;;5012265;28;20038;-74
2023/02/20 06:51:19;;;;;;;4.70;2.60;;;;;;;;;;5013582;28;20072;-73
2023/02/20 06:53:45;;;;;;;4.53;2.58;;;;;;;;;;5015144;28;20128;-73
2023/02/20 06:56:17;;;;;;;4.00;2.70;;;;;;;;;;5015125;28;20124;-73
2023/02/20 06:58:43;;;;;;;3.83;2.47;;;;;;;;;;5011879;28;20058;-73
2023/02/20 07:01:09;;;;;;;5.05;2.53;;;;;;;;;;5014089;28;20405;-73
2023/02/20 07:03:35;;;;;;;4.07;2.50;;;;;;;;;;5010963;28;20053;-73
2023/02/20 07:06:01;;;;;;;3.55;2.45;;;;;;;;;;5011364;28;20389;-73
2023/02/20 07:08:27;;;;;;;3.60;2.05;;;;;;;;;;5013590;28;20034;-74
2023/02/20 07:10:54;;;;;;;3.38;2.17;;;;;;;;;;5015043;28;20429;-73
2023/02/20 07:13:21;;;;;;;3.17;2.08;;;;;;;;;;5008101;28;20033;-73
2023/02/20 07:15:46;;;;;;;3.50;2.00;;;;;;;;;;5014597;28;20049;-73
2023/02/20 07:18:12;;;;;;;3.15;1.98;;;;;;;;;;5014871;28;20099;-73
2023/02/20 07:20:37;;;;;;;3.30;1.73;;;;;;;;;;5014462;28;20030;-75
2023/02/20 07:23:03;;;;;;;2.72;1.73;;;;;;;;;;4999064;28;20049;-72
2023/02/20 07:25:28;;;;;;;3.13;1.95;;;;;;;;;;5006339;28;20047;-73
2023/02/20 07:27:54;;;;;;;3.13;1.70;;;;;;;;;;5015146;28;20029;-73
2023/02/20 07:30:19;;;;;;;2.67;1.58;;;;;;;;;;5013870;28;20046;-73
2023/02/20 07:32:45;;;;;;;2.95;1.67;;;;;;;;;;5007438;28;20034;-73
2023/02/20 07:35:10;;;;;;;3.83;1.85;;;;;;;;;;5013143;28;20029;-73
2023/02/20 07:37:35;;;;;;;2.78;1.77;;;;;;;;;;5012628;28;20042;-74
2023/02/20 07:40:02;;;;;;;2.42;1.40;;;;;;;;;;5012438;28;20038;-73
2023/02/20 07:42:27;;;;;;;2.95;1.75;;;;;;;;;;5013397;28;20072;-74
2023/02/20 07:44:52;;;;;;;2.00;1.30;;;;;;;;;;5010236;28;20069;-73
2023/02/20 07:47:18;;;;;;;2.75;1.58;;;;;;;;;;5012378;28;20421;-73
2023/02/20 07:49:43;;;;;;;3.10;1.73;;;;;;;;;;5014467;28;20028;-73
2023/02/20 07:52:09;;;;;;;2.63;1.60;;;;;;;;;;5013956;28;20405;-73
2023/02/20 07:54:34;;;;;;;2.83;1.50;;;;;;;;;;5014219;28;20464;-74
2023/02/20 07:57:00;;;;;;;3.17;1.20;;;;;;;;;;5013581;28;20441;-73
2023/02/20 07:59:25;;;;;;;3.08;1.02;;;;;;;;;;5013985;28;20050;-73
2023/02/20 08:01:50;;;;;;;3.35;1.60;;;;;;;;;;5013787;28;20117;-73
2023/02/20 08:04:16;;;;;;;2.88;1.40;;;;;;;;;;5013275;28;20121;-75
2023/02/20 08:06:42;;;;;;;1.95;1.05;;;;;;;;;;5013338;28;20133;-74
2023/02/20 08:09:07;;;;;;;2.45;1.20;;;;;;;;;;5009875;28;20118;-74
2023/02/20 08:11:34;;;;;;;2.22;1.20;;;;;;;;;;5013625;28;20057;-73
2023/02/20 08:14:00;;;;;;;2.10;1.17;;;;;;;;;;5004496;28;20041;-73
2023/02/20 08:16:25;;;;;;;1.90;1.00;;;;;;;;;;5005514;28;20097;-74
2023/02/20 08:18:52;;;;;;;2.30;0.98;;;;;;;;;;5008838;28;20026;-74
2023/02/20 08:21:17;;;;;;;3.55;1.00;;;;;;;;;;5028886;28;20048;-73
2023/02/20 08:23:43;;;;;;;2.25;1.10;;;;;;;;;;4999041;28;20042;-74
2023/02/20 08:26:09;;;;;;;2.03;1.10;;;;;;;;;;5013777;28;20052;-73
2023/02/20 08:28:34;;;;;;;2.53;1.20;;;;;;;;;;5012698;28;20044;-73
2023/02/20 08:31:00;;;;;;;1.70;1.00;;;;;;;;;;5002346;28;20117;-74
2023/02/20 08:33:25;;;;;;;1.77;1.00;;;;;;;;;;5003395;28;20037;-73
2023/02/20 08:35:52;;;;;;;1.80;0.90;;;;;;;;;;5013423;28;20042;-73
2023/02/20 08:38:23;;;;;;;2.10;1.20;;;;;;;;;;5011887;28;20048;-73
2023/02/20 08:40:48;;;;;;;1.98;1.05;;;;;;;;;;5013361;28;20037;-74
2023/02/20 08:43:13;;;;;;;1.70;0.90;;;;;;;;;;5010932;28;20095;-72
2023/02/20 08:45:39;;;;;;;3.65;1.08;;;;;;;;;;5002004;28;20050;-74
2023/02/20 08:48:04;;;;;;;2.20;1.10;;;;;;;;;;5008641;28;20088;-73
2023/02/20 08:50:30;;;;;;;1.95;0.88;;;;;;;;;;5013306;28;20390;-73
2023/02/20 08:52:55;;;;;;;1.77;0.82;;;;;;;;;;5010809;28;20099;-74
2023/02/20 08:55:21;;;;;;;2.58;1.30;;;;;;;;;;5012928;28;20041;-73
2023/02/20 08:57:47;;;;;;;3.60;1.95;;;;;;;;;;5000045;28;20060;-73
2023/02/20 09:00:14;;;;;;;4.70;3.00;;;;;;;;;;5006641;28;20072;-73
2023/02/20 09:02:40;;;;;;;5.68;3.30;;;;;;;;;;5007609;28;20496;-74
2023/02/20 09:05:06;;;;;;;8.73;5.10;;;;;;;;;;5004017;28;20120;-73
2023/02/20 09:07:31;;;;;;;3.03;1.77;;;;;;;;;;5010501;28;20428;-73
2023/02/20 09:09:57;;;;;;;4.10;2.65;;;;;;;;;;5006535;28;20034;-73
2023/02/20 09:12:22;;;;;;;3.28;1.42;;;;;;;;;;5012460;28;20116;-73
2023/02/20 09:14:48;;;;;;;8.25;1.98;;;;;;;;;;5012243;28;20046;-73
2023/02/20 09:17:13;;;;;;;4.53;1.70;;;;;;;;;;5011787;28;20061;-73
2023/02/20 09:19:39;;;;;;;2.95;1.27;;;;;;;;;;5011629;28;20673;-73
2023/02/20 09:22:04;;;;;;;4.15;1.42;;;;;;;;;;5007512;28;20512;-73
2023/02/20 09:24:36;;;;;;;2.50;1.20;;;;;;;;;;5010929;28;20027;-74
2023/02/20 09:27:05;;;;;;;5.93;1.50;;;;;;;;;;5012203;28;20049;-74
2023/02/20 09:29:30;;;;;;;4.43;1.85;;;;;;;;;;4996905;28;20046;-77
2023/02/20 09:31:56;;;;;;;14.68;2.55;;;;;;;;;;5001350;28;20038;-74
2023/02/20 09:34:22;;;;;;;6.35;1.60;;;;;;;;;;4995256;28;20877;-73
2023/02/20 09:36:47;;;;;;;3.13;1.42;;;;;;;;;;5011676;28;20045;-71
2023/02/20 09:39:16;;;;;;;4.40;1.30;;;;;;;;;;5010953;28;20045;-73
2023/02/20 09:42:12;;;;;;;3.97;1.38;;;;;;;;;;5011841;28;20061;-73
2023/02/20 09:44:41;;;;;;;3.87;1.40;;;;;;;;;;4993482;28;20153;-74
2023/02/20 09:47:17;;;;;;;5.13;1.40;;;;;;;;;;5009465;28;20161;-73
2023/02/20 09:49:42;;;;;;;5.80;1.80;;;;;;;;;;4989629;28;20116;-72
2023/02/20 09:52:11;;;;;;;4.43;1.50;;;;;;;;;;5018983;28;20128;-72
2023/02/20 09:54:49;;;;;;;5.65;1.60;;;;;;;;;;4991141;28;20043;-73
2023/02/20 09:57:22;;;;;;;4.78;1.60;;;;;;;;;;5008892;28;20042;-72
2023/02/20 09:59:53;;;;;;;3.85;1.38;;;;;;;;;;5011327;28;20423;-74
2023/02/20 10:02:41;;;;;;;3.15;1.30;;;;;;;;;;5014672;28;20088;-73
2023/02/20 10:05:18;;;;;;;6.47;1.80;;;;;;;;;;4985323;28;20389;-76
2023/02/20 10:07:44;;;;;;;8.60;1.52;;;;;;;;;;5011124;28;20065;-74
2023/02/20 10:10:18;;;;;;;6.47;1.73;;;;;;;;;;5007837;28;20096;-76
2023/02/20 10:12:51;;;;;;;16.95;2.22;;;;;;;;;;5002304;28;20042;-74
2023/02/20 10:15:29;;;;;;;12.00;4.13;;;;;;;;;;5009339;28;20485;-72
2023/02/20 10:18:22;;;;;;;24.48;7.55;;;;;;;;;;5014339;28;20470;-73
2023/02/20 10:20:54;;;;;;;8.95;2.35;;;;;;;;;;5012273;28;20050;-72
2023/02/20 10:23:29;;;;;;;6.03;1.48;;;;;;;;;;5006193;28;20045;-73
2023/02/20 10:25:57;;;;;;;7.45;1.80;;;;;;;;;;5007226;28;20037;-74
2023/02/20 10:28:23;;;;;;;8.45;1.80;;;;;;;;;;4996270;28;20042;-72
2023/02/20 10:31:26;;;;;;;4.80;1.33;;;;;;;;;;5016719;28;20049;-73
2023/02/20 10:33:57;;;;;;;4.88;1.30;;;;;;;;;;5013943;28;20112;-73
2023/02/20 10:36:28;;;;;;;34.25;10.43;;;;;;;;;;5036577;28;20037;-74
2023/02/20 10:39:12;;;;;;;22.45;6.82;;;;;;;;;;5009501;28;20069;-73
2023/02/20 10:41:50;;;;;;;29.92;5.35;;;;;;;;;;5008546;28;20117;-72
2023/02/20 10:44:28;;;;;;;2.97;1.45;;;;;;;;;;5011772;28;20076;-73
2023/02/20 10:47:19;;;;;;;11.70;1.65;;;;;;;;;;5012135;28;20037;-73
2023/02/20 10:49:56;;;;;;;3.90;1.00;;;;;;;;;;5003301;28;20034;-72
2023/02/20 10:52:28;;;;;;;3.60;1.30;;;;;;;;;;5011474;28;20045;-73
2023/02/20 10:55:07;;;;;;;2.25;1.10;;;;;;;;;;5026858;28;20180;-74
2023/02/20 10:57:37;;;;;;;1.98;0.98;;;;;;;;;;5009453;28;20038;-73
2023/02/20 11:00:08;;;;;;;2.33;1.00;;;;;;;;;;5012181;28;20037;-74
2023/02/20 11:02:39;;;;;;;2.28;1.20;;;;;;;;;;5012354;28;20045;-73
2023/02/20 11:05:11;;;;;;;1.38;0.80;;;;;;;;;;5001197;28;20483;-72
2023/02/20 11:07:37;;;;;;;2.50;1.10;;;;;;;;;;5010971;28;20040;-72
2023/02/20 11:10:03;;;;;;;2.15;1.00;;;;;;;;;;5024958;28;21007;-74
2023/02/20 11:12:33;;;;;;;2.17;0.98;;;;;;;;;;5011402;28;20038;-73
2023/02/20 11:15:06;;;;;;;2.95;1.20;;;;;;;;;;4999924;28;20042;-73
2023/02/20 11:17:33;;;;;;;2.33;1.20;;;;;;;;;;5026255;28;20037;-73
2023/02/20 11:20:00;;;;;;;2.22;0.93;;;;;;;;;;5006799;28;20185;-72
2023/02/20 11:22:44;;;;;;;2.40;1.05;;;;;;;;;;5010823;28;20037;-73
2023/02/20 11:25:28;;;;;;;2.38;1.02;;;;;;;;;;5005217;28;20576;-72
2023/02/20 11:28:20;;;;;;;3.55;1.10;;;;;;;;;;5001944;28;20121;-77
2023/02/20 11:30:49;;;;;;;2.13;1.02;;;;;;;;;;4998814;28;20932;-76
2023/02/20 11:33:20;;;;;;;2.47;1.25;;;;;;;;;;5024599;28;20033;-73
2023/02/20 11:35:55;;;;;;;4.35;1.10;;;;;;;;;;4997173;28;20399;-73
2023/02/20 11:38:21;;;;;;;1.55;0.85;;;;;;;;;;5000503;28;20136;-73
2023/02/20 11:41:00;;;;;;;2.42;1.10;;;;;;;;;;5004969;28;20418;-74
2023/02/20 11:43:46;;;;;;;2.35;0.93;;;;;;;;;;4997646;28;20116;-73
2023/02/20 11:46:22;;;;;;;1.83;0.98;;;;;;;;;;5000630;28;20081;-73
2023/02/20 11:49:08;;;;;;;2.92;1.20;;;;;;;;;;4998609;28;20394;-73
2023/02/20 11:51:45;;;;;;;3.92;1.70;;;;;;;;;;5003266;28;20053;-73
2023/02/20 11:54:21;;;;;;;6.45;1.42;;;;;;;;;;5025893;28;20470;-72
2023/02/20 11:56:59;;;;;;;5.20;1.70;;;;;;;;;;5024313;28;20058;-74
2023/02/20 11:59:35;;;;;;;3.88;1.60;;;;;;;;;;5010366;28;20041;-72
2023/02/20 12:02:18;;;;;;;2.97;1.40;;;;;;;;;;5009221;28;20042;-72
2023/02/20 12:04:45;;;;;;;3.53;1.50;;;;;;;;;;5008014;28;20210;-74
2023/02/20 12:07:34;;;;;;;3.15;1.40;;;;;;;;;;5002364;28;20132;-72
2023/02/20 12:10:08;;;;;;;4.40;1.75;;;;;;;;;;5008942;28;20040;-73
2023/02/20 12:12:33;;;;;;;5.47;1.70;;;;;;;;;;4997648;28;20038;-72
2023/02/20 12:14:58;;;;;;;13.65;1.92;;;;;;;;;;5009023;28;20100;-73
2023/02/20 12:18:05;;;;;;;2.95;1.20;;;;;;;;;;5008610;28;20467;-73
2023/02/20 12:20:32;;;;;;;4.95;2.00;;;;;;;;;;5010142;28;20577;-73
2023/02/20 12:23:04;;;;;;;2.63;1.33;;;;;;;;;;4995310;28;20038;-73
2023/02/20 12:25:56;;;;;;;2.95;1.60;;;;;;;;;;5000558;28;20045;-73
2023/02/20 12:29:00;;;;;;;4.45;1.58;;;;;;;;;;5025542;28;20033;-73
2023/02/20 12:31:30;;;;;;;2.67;1.30;;;;;;;;;;5004727;28;20054;-76
2023/02/20 12:34:05;;;;;;;3.78;1.80;;;;;;;;;;5008487;28;20044;-73
2023/02/20 12:36:36;;;;;;;2.75;1.45;;;;;;;;;;5009918;28;20034;-73
2023/02/20 12:39:06;;;;;;;3.38;1.33;;;;;;;;;;5024756;28;20037;-73
2023/02/20 12:41:50;;;;;;;2.35;1.20;;;;;;;;;;5022656;28;20124;-73
2023/02/20 12:44:33;;;;;;;3.15;1.48;;;;;;;;;;4998091;28;20055;-73
2023/02/20 12:47:15;;;;;;;2.38;1.48;;;;;;;;;;4999852;28;20521;-73
2023/02/20 12:49:50;;;;;;;2.45;1.27;;;;;;;;;;5007352;28;20466;-73
2023/02/20 12:52:53;;;;;;;3.60;1.50;;;;;;;;;;5008773;28;20053;-73
2023/02/20 12:55:43;;;;;;;4.05;1.50;;;;;;;;;;5010296;28;20045;-73
2023/02/20 12:58:36;;;;;;;2.30;1.30;;;;;;;;;;5002540;28;20132;-74
2023/02/20 13:01:04;;;;;;;3.10;1.45;;;;;;;;;;5006265;28;20041;-73
2023/02/20 13:03:48;;;;;;;2.88;1.70;;;;;;;;;;5008224;28;20052;-73
2023/02/20 13:06:27;;;;;;;2.80;1.33;;;;;;;;;;5008566;28;20042;-73
2023/02/20 13:09:17;;;;;;;3.28;1.60;;;;;;;;;;5006422;28;20049;-74
2023/02/20 13:11:45;;;;;;;3.00;1.70;;;;;;;;;;4999203;28;20041;-73
2023/02/20 13:14:13;;;;;;;3.17;1.63;;;;;;;;;;5016423;28;20363;-73
2023/02/20 13:17:03;;;;;;;2.95;1.40;;;;;;;;;;4999946;28;20464;-73
2023/02/20 13:19:43;;;;;;;3.25;1.50;;;;;;;;;;5017191;28;20042;-73
2023/02/20 13:22:09;;;;;;;3.60;1.77;;;;;;;;;;4996177;28;20034;-73
2023/02/20 13:24:36;;;;;;;3.90;1.80;;;;;;;;;;5003734;28;20053;-73
2023/02/20 13:27:07;;;;;;;3.58;1.90;;;;;;;;;;5005843;28;20025;-73
2023/02/20 13:29:37;;;;;;;4.70;2.45;;;;;;;;;;5011660;28;20041;-73
2023/02/20 13:32:18;;;;;;;3.42;2.05;;;;;;;;;;5010609;28;20450;-73
2023/02/20 13:34:43;;;;;;;4.03;2.20;;;;;;;;;;5002853;28;20547;-76
2023/02/20 13:37:35;;;;;;;4.18;2.25;;;;;;;;;;5009245;28;20034;-73
2023/02/20 13:40:25;;;;;;;4.95;2.33;;;;;;;;;;5008881;28;20025;-73
2023/02/20 13:43:27;;;;;;;3.67;2.00;;;;;;;;;;5011153;28;20042;-73
2023/02/20 13:46:06;;;;;;;3.10;1.95;;;;;;;;;;5000956;28;20022;-73
2023/02/20 13:48:37;;;;;;;3.10;1.90;;;;;;;;;;5008463;28;20445;-73
2023/02/20 13:51:17;;;;;;;3.88;2.17;;;;;;;;;;5014112;28;20054;-74
2023/02/20 13:54:00;;;;;;;3.00;1.77;;;;;;;;;;5012216;28;20045;-73
2023/02/20 13:56:42;;;;;;;4.45;2.17;;;;;;;;;;5013655;28;20025;-73
2023/02/20 13:59:13;;;;;;;5.35;2.50;;;;;;;;;;5008251;28;20092;-73
2023/02/20 14:01:55;;;;;;;5.65;2.53;;;;;;;;;;5012057;28;20502;-73
2023/02/20 14:04:22;;;;;;;4.30;2.35;;;;;;;;;;5002586;28;20054;-73
2023/02/20 14:06:52;;;;;;;3.80;1.85;;;;;;;;;;5010084;28;20501;-73
2023/02/20 14:09:26;;;;;;;3.97;2.40;;;;;;;;;;5027739;28;20129;-73
2023/02/20 14:11:53;;;;;;;6.30;2.10;;;;;;;;;;5027196;28;20112;-73
2023/02/20 14:14:28;;;;;;;6.18;2.20;;;;;;;;;;5003862;28;20042;-73
2023/02/20 14:17:06;;;;;;;4.05;2.00;;;;;;;;;;5027550;28;20125;-74
2023/02/20 14:19:32;;;;;;;3.22;1.65;;;;;;;;;;5010886;28;20058;-74
2023/02/20 14:22:13;;;;;;;3.38;1.75;;;;;;;;;;5026927;28;20080;-73
2023/02/20 14:24:39;;;;;;;4.20;2.00;;;;;;;;;;4999682;28;20049;-73
2023/02/20 14:27:24;;;;;;;2.53;1.65;;;;;;;;;;5003220;28;20042;-74
2023/02/20 14:30:24;;;;;;;5.70;2.38;;;;;;;;;;5010702;28;20052;-73
2023/02/20 14:32:52;;;;;;;3.75;2.05;;;;;;;;;;5003478;28;20081;-73
2023/02/20 14:35:31;;;;;;;3.10;1.50;;;;;;;;;;5009665;28;20497;-73
2023/02/20 14:38:09;;;;;;;3.72;1.55;;;;;;;;;;5011221;28;20041;-74
2023/02/20 14:40:41;;;;;;;2.92;1.60;;;;;;;;;;5000156;28;20070;-73
2023/02/20 14:43:20;;;;;;;2.90;1.60;;;;;;;;;;5002043;28;20042;-73
2023/02/20 14:45:47;;;;;;;2.92;1.50;;;;;;;;;;5026994;28;20037;-73
2023/02/20 14:48:25;;;;;;;2.92;1.42;;;;;;;;;;5003591;28;20129;-73
2023/02/20 14:51:25;;;;;;;3.28;1.83;;;;;;;;;;4987731;28;20375;-73
2023/02/20 14:53:59;;;;;;;3.13;1.60;;;;;;;;;;4997617;28;20061;-73
2023/02/20 14:56:24;;;;;;;;;;;;;;;;;;5005318;28;20042;-73
2023/02/20 14:58:50;;;;;;;2.42;1.30;;;;;;;;;;5014102;28;19920;-73
2023/02/20 15:01:26;;;;;;;2.97;1.50;;;;;;;;;;5011395;28;20112;-73
2023/02/20 15:04:01;;;;;;;5.15;1.77;;;;;;;;;;5027177;28;20065;-73
2023/02/20 15:06:28;;;;;;;2.72;1.50;;;;;;;;;;5026697;28;20069;-73
2023/02/20 15:08:58;;;;;;;2.33;1.40;;;;;;;;;;5007062;28;20044;-73
2023/02/20 15:11:24;;;;;;;2.60;1.40;;;;;;;;;;5026278;28;20092;-73
2023/02/20 15:13:50;;;;;;;2.65;1.42;;;;;;;;;;5011366;28;20029;-74
2023/02/20 15:16:27;;;;;;;2.72;1.33;;;;;;;;;;5026480;28;20413;-73
2023/02/20 15:18:53;;;;;;;2.47;1.48;;;;;;;;;;4988041;28;20397;-73
2023/02/20 15:21:38;;;;;;;2.78;1.50;;;;;;;;;;5026488;28;20137;-73